tititudorancea.com
Station Historical Data
Daily Summary for May 12, 2018 Units:  Metric    English   Both
« Previous Day
Next Day »
Daily Weekly Monthly Yearly Custom
  High: Low: Average:
Temperature: -17.8 °C 8.7 °C 10.4 °C
Dew Point: -17.8 °C 6.8 °C 9.1 °C
Humidity: Humidity % 87 % 91 %
Wind Speed: 0 km/h 7.9 km/h 19.2 km/h
Wind Gust: 0 km/h - -
Wind:- - SW
Pressure: 0 hPa 1021.9 hPa -
Precipitation: 0.51 mm    
Historical Graphs
 
 
Ararat weather Find more about Weather in Ararat, AU


 



 


Tabular Data for May 12, 2018
Time Temperature Dew Point Pressure Wind Wind Speed Wind Gust Humidity Rainfall Rate (Hourly)
-17.8 °C -17.8 °C 0 hPa Calm     Humidity % 0 mm
00:00 9.1 °C 7.6 °C 1021.9 hPa SSW 21.7 km/h 31.5 km/h 90 % 0 mm
00:05 9.1 °C 7.6 °C 1021.9 hPa SSW 22.4 km/h 33.3 km/h 90 % 0 mm
00:10 9.1 °C 7.6 °C 1021.9 hPa SSW 20.8 km/h 31.5 km/h 90 % 0 mm
00:15 9.1 °C 7.6 °C 1022.2 hPa South 26.7 km/h 26.7 km/h 90 % 0 mm
00:20 9.1 °C 7.5 °C 1021.9 hPa North 24.5 km/h 31.5 km/h 90 % 0 mm
00:25 9 °C 7.4 °C 1022.2 hPa South 14.6 km/h 25.9 km/h 90 % 0 mm
00:30 8.9 °C 7.6 °C 1022.2 hPa North 26.6 km/h 37 km/h 91 % 0 mm
00:35 8.9 °C 7.5 °C 1021.9 hPa North 16.3 km/h 29.6 km/h 91 % 0 mm
00:40 8.8 °C 7.4 °C 1021.9 hPa North 23.2 km/h 29.6 km/h 91 % 0 mm
00:45 8.8 °C 7.6 °C 1021.9 hPa SSW 16.6 km/h 33.3 km/h 92 % 0 mm
00:50 8.8 °C 7.6 °C 1022.2 hPa SSW 19.6 km/h 31.5 km/h 92 % 0 mm
00:55 8.8 °C 7.6 °C 1021.9 hPa SSW 20.4 km/h 29 km/h 92 % 0 mm
01:00 8.8 °C 7.6 °C 1021.9 hPa SSW 23.7 km/h 25.9 km/h 92 % 0 mm
01:05 8.9 °C 7.7 °C 1021.9 hPa South 25.3 km/h 29.6 km/h 92 % 0 mm
01:10 9 °C 7.6 °C 1021.9 hPa SSW 17.4 km/h 38.9 km/h 91 % 0 mm
01:15 9 °C 7.6 °C 1021.9 hPa SSW 15.6 km/h 22.5 km/h 91 % 0 mm
01:20 9.1 °C 7.6 °C 1021.9 hPa SSW 23.5 km/h 38.6 km/h 90 % 0 mm
01:25 9.2 °C 7.4 °C 1021.9 hPa SSW 25.9 km/h 31.5 km/h 89 % 0 mm
01:30 9.2 °C 7.5 °C 1022.2 hPa SSW 22.7 km/h 31.5 km/h 89 % 0 mm
01:35 9.3 °C 7.4 °C 1022.2 hPa SW 24 km/h 30.6 km/h 88 % 0 mm
01:40 9.3 °C 7.4 °C 1022.2 hPa SSW 17.1 km/h 25.9 km/h 88 % 0 mm
01:45 9.3 °C 7.4 °C 1022.2 hPa SSW 11.4 km/h 27.8 km/h 88 % 0 mm
01:50 9.3 °C 7.4 °C 1022.2 hPa SSW 16.1 km/h 20.9 km/h 88 % 0 mm
01:55 9.3 °C 7.4 °C 1022.2 hPa SSW 16.6 km/h 31.5 km/h 88 % 0 mm
02:01 9.3 °C 7.4 °C 1022.2 hPa SSW 15.1 km/h 27.8 km/h 88 % 0 mm
02:06 9.3 °C 7.2 °C 1022.2 hPa SSW 23.2 km/h 27.8 km/h 87 % 0 mm
02:11 9.2 °C 7.2 °C 1022.2 hPa SSW 19 km/h 27.8 km/h 87 % 0 mm
02:16 9.2 °C 7.1 °C 1022.2 hPa SSW 22 km/h 24.1 km/h 87 % 0 mm
02:21 9.2 °C 7.3 °C 1022.2 hPa SSW 24.6 km/h 35.2 km/h 88 % 0 mm
02:26 9.2 °C 7.3 °C 1022.2 hPa SSW 14.8 km/h 18.5 km/h 88 % 0 mm
02:31 9.1 °C 7.2 °C 1022.2 hPa SSW 23.5 km/h 33.3 km/h 88 % 0 mm
02:36 9.1 °C 7.2 °C 1022.2 hPa SSW 25.6 km/h 42.6 km/h 88 % 0 mm
02:41 9.1 °C 7.2 °C 1022.2 hPa SSW 27.8 km/h 42.6 km/h 88 % 0 mm
02:46 8.9 °C 7.1 °C 1022.2 hPa SW 20 km/h 27.4 km/h 88 % 0 mm
02:51 8.8 °C 6.9 °C 1022.2 hPa SW 19.2 km/h 27.8 km/h 88 % 0 mm
02:56 8.8 °C 6.9 °C 1022.2 hPa SSW 19 km/h 35.2 km/h 88 % 0 mm
03:01 8.8 °C 7.1 °C 1022.2 hPa SSW 20 km/h 24.1 km/h 89 % 0 mm
03:06 8.8 °C 7.1 °C 1022.2 hPa South 15.9 km/h 25.9 km/h 89 % 0 mm
03:11 8.7 °C 7 °C 1022.6 hPa SSW 17.2 km/h 22.2 km/h 89 % 0 mm
03:16 8.7 °C 6.9 °C 1022.6 hPa SSW 20.6 km/h 33.3 km/h 89 % 0 mm
03:21 8.7 °C 6.9 °C 1022.6 hPa SSW 16.6 km/h 24.1 km/h 89 % 0 mm
03:26 8.7 °C 7 °C 1022.2 hPa South 15.4 km/h 24.1 km/h 89 % 0 mm
03:31 8.7 °C 6.9 °C 1022.2 hPa SW 22.2 km/h 31.5 km/h 89 % 0 mm
03:36 8.7 °C 7 °C 1022.2 hPa South 14.5 km/h 27.8 km/h 89 % 0 mm
03:41 8.8 °C 7.1 °C 1022.2 hPa SSW 30.4 km/h 40.7 km/h 89 % 0 mm
03:46 8.8 °C 6.9 °C 1022.2 hPa SSW 20.1 km/h 29.6 km/h 88 % 0 mm
03:51 8.8 °C 6.9 °C 1022.2 hPa SSW 17.5 km/h 27.8 km/h 88 % 0 mm
03:56 8.8 °C 6.9 °C 1022.2 hPa SSW 17.9 km/h 27.8 km/h 88 % 0 mm
04:01 8.8 °C 6.9 °C 1022.2 hPa SSW 13.5 km/h 18.5 km/h 88 % 0 mm
04:06 8.8 °C 6.9 °C 1022.2 hPa SSW 20.9 km/h 27.8 km/h 88 % 0 mm
04:11 8.9 °C 7 °C 1022.2 hPa SSW 19.8 km/h 25.9 km/h 88 % 0 mm
04:16 8.8 °C 6.9 °C 1022.6 hPa South 25.4 km/h 37 km/h 88 % 0 mm
04:21 8.8 °C 6.9 °C 1022.6 hPa South 24 km/h 35.2 km/h 88 % 0 mm
04:26 8.8 °C 6.9 °C 1022.6 hPa South 20.8 km/h 31.5 km/h 88 % 0 mm
04:31 8.8 °C 6.9 °C 1022.6 hPa SSW 16.3 km/h 27.8 km/h 88 % 0 mm
04:36 8.7 °C 6.8 °C 1022.6 hPa SSW 18.8 km/h 25.9 km/h 88 % 0 mm
04:41 8.7 °C 6.8 °C 1022.6 hPa North 10.9 km/h 17.7 km/h 88 % 0 mm
04:46 8.7 °C 6.8 °C 1022.6 hPa SSW 23.2 km/h 31.5 km/h 88 % 0 mm
04:51 8.7 °C 6.8 °C 1022.6 hPa SSW 19.6 km/h 29.6 km/h 88 % 0 mm
04:56 8.7 °C 6.9 °C 1022.6 hPa SSW 22.5 km/h 33.3 km/h 89 % 0 mm
05:01 8.7 °C 6.8 °C 1022.6 hPa SSW 23.2 km/h 33.3 km/h 88 % 0 mm
05:06 8.7 °C 6.8 °C 1022.6 hPa SSW 22.5 km/h 31.5 km/h 88 % 0 mm
05:11 8.7 °C 6.8 °C 1022.6 hPa SSW 23.2 km/h 31.5 km/h 88 % 0 mm
05:16 8.8 °C 6.9 °C 1022.6 hPa SSW 24.3 km/h 31.5 km/h 88 % 0 mm
05:21 8.9 °C 7 °C 1022.9 hPa SSW 26.7 km/h 35.2 km/h 88 % 0 mm
05:26 8.9 °C 7.1 °C 1022.9 hPa SSW 20.4 km/h 37 km/h 88 % 0 mm
05:31 8.9 °C 7.1 °C 1022.9 hPa SSW 25.7 km/h 37 km/h 88 % 0 mm
05:36 8.9 °C 7.1 °C 1022.9 hPa SSW 23.5 km/h 38.9 km/h 88 % 0 mm
05:41 8.9 °C 7 °C 1022.9 hPa SW 26.6 km/h 35.2 km/h 88 % 0 mm
05:42 8.9 °C 7 °C 1022.9 hPa SSW 16.6 km/h 31.5 km/h 88 % 0 mm
05:47 8.9 °C 7 °C 1023.2 hPa North 17.1 km/h 33.3 km/h 88 % 0 mm
05:52 8.8 °C 6.9 °C 1023.2 hPa SSW 18.5 km/h 29.6 km/h 88 % 0 mm
05:57 8.8 °C 6.9 °C 1023.2 hPa SSW 18.2 km/h 27.8 km/h 88 % 0 mm
06:02 8.8 °C 6.9 °C 1023.2 hPa SSW 18 km/h 20.9 km/h 88 % 0 mm
06:07 8.9 °C 7 °C 1023.2 hPa SSW 21.4 km/h 31.5 km/h 88 % 0 mm
06:12 8.9 °C 7.1 °C 1023.2 hPa South 20.9 km/h 27.4 km/h 88 % 0 mm
06:17 8.9 °C 7.1 °C 1023.6 hPa SW 19.3 km/h 29.6 km/h 88 % 0 mm
06:22 9 °C 7.1 °C 1023.6 hPa SSW 22 km/h 29 km/h 88 % 0 mm
06:27 9.1 °C 7.2 °C 1023.2 hPa SSW 13.8 km/h 20.9 km/h 88 % 0 mm
06:32 9.1 °C 7.2 °C 1023.2 hPa South 23.2 km/h 25.9 km/h 88 % 0 mm
06:37 9.1 °C 7.2 °C 1023.2 hPa SSW 23.3 km/h 35.2 km/h 88 % 0 mm
06:42 9.1 °C 7.2 °C 1023.2 hPa SW 18.2 km/h 20.9 km/h 88 % 0 mm
06:47 9.1 °C 7.2 °C 1023.6 hPa North 19.2 km/h 27.8 km/h 88 % 0 mm
06:52 9.1 °C 7.2 °C 1023.6 hPa SSW 25.4 km/h 29.6 km/h 88 % 0 mm
06:57 9.2 °C 7.3 °C 1023.6 hPa SSW 25.7 km/h 35.2 km/h 88 % 0 mm
07:02 9.2 °C 7.3 °C 1023.6 hPa SSW 24.5 km/h 27.8 km/h 88 % 0 mm
07:07 9.3 °C 7.2 °C 1023.6 hPa SSW 20.1 km/h 29.6 km/h 87 % 0 mm
07:12 9.3 °C 7.2 °C 1023.9 hPa SSW 20.1 km/h 29.6 km/h 87 % 0 mm
07:17 9.3 °C 7.4 °C 1023.9 hPa SSW 21.6 km/h 30.6 km/h 88 % 0 mm
07:22 9.3 °C 7.3 °C 1023.9 hPa SSW 20.8 km/h 31.5 km/h 87 % 0 mm
07:27 9.3 °C 7.3 °C 1023.9 hPa SSW 17.4 km/h 29.6 km/h 87 % 0 mm
07:32 9.4 °C 7.3 °C 1023.9 hPa SSW 24.9 km/h 33.3 km/h 87 % 0 mm
07:37 9.4 °C 7.3 °C 1024.3 hPa SSW 25.1 km/h 31.5 km/h 87 % 0 mm
07:42 9.4 °C 7.4 °C 1024.3 hPa North 20.8 km/h 29 km/h 87 % 0 mm
07:47 9.4 °C 7.4 °C 1024.3 hPa South 16.6 km/h 29.6 km/h 87 % 0 mm
07:52 9.5 °C 7.4 °C 1024.3 hPa SSW 23.5 km/h 31.5 km/h 87 % 0 mm
07:57 9.5 °C 7.6 °C 1024.6 hPa North 14.8 km/h 33.3 km/h 88 % 0 mm
08:02 9.5 °C 7.6 °C 1024.6 hPa SSW 15.3 km/h 20.4 km/h 88 % 0 mm
08:07 9.6 °C 7.7 °C 1024.6 hPa North 24.1 km/h 25.9 km/h 88 % 0 mm
08:12 9.6 °C 7.7 °C 1024.6 hPa SSW 19.3 km/h 25.9 km/h 88 % 0 mm
08:18 9.6 °C 7.7 °C 1024.6 hPa South 17.9 km/h 18.5 km/h 88 % 0 mm
08:23 9.6 °C 7.7 °C 1024.6 hPa SSW 20.8 km/h 30.6 km/h 88 % 0 mm
08:28 9.7 °C 7.8 °C 1024.6 hPa North 14 km/h 29 km/h 88 % 0 mm
08:33 9.7 °C 7.8 °C 1024.6 hPa North 18.2 km/h 25.9 km/h 88 % 0 mm
08:38 9.8 °C 7.9 °C 1024.6 hPa SSW 15.1 km/h 24.1 km/h 88 % 0 mm
08:43 9.8 °C 7.9 °C 1024.6 hPa SSW 31.5 km/h 31.5 km/h 88 % 0 mm
08:48 9.9 °C 8 °C 1024.6 hPa South 15.6 km/h 31.5 km/h 88 % 0 mm
08:53 9.9 °C 8.1 °C 1024.6 hPa SSW 13.4 km/h 20.4 km/h 88 % 0 mm
08:58 10 °C 8.1 °C 1024.9 hPa SSW 10.1 km/h 24.1 km/h 88 % 0 mm
09:03 10 °C 8.1 °C 1024.9 hPa South 16.9 km/h 22.2 km/h 88 % 0 mm
09:08 10.1 °C 8.4 °C 1024.9 hPa South 11.4 km/h 16.7 km/h 89 % 0 mm
09:13 10.2 °C 8.4 °C 1024.6 hPa North 18 km/h 29.6 km/h 89 % 0 mm
09:18 10.2 °C 8.5 °C 1024.9 hPa North 14.8 km/h 29.6 km/h 89 % 0 mm
09:23 10.2 °C 8.5 °C 1024.9 hPa North 15 km/h 22.2 km/h 89 % 0 mm
09:28 10.3 °C 8.6 °C 1024.9 hPa SSW 12.6 km/h 20.4 km/h 89 % 0 mm
09:33 10.2 °C 8.7 °C 1024.9 hPa SSW 22.4 km/h 31.5 km/h 90 % 0 mm
09:35 10.2 °C 8.7 °C 1024.9 hPa South 13.4 km/h 22.2 km/h 90 % 0 mm
09:40 10.3 °C 8.7 °C 1024.9 hPa SSW 11.1 km/h 22.2 km/h 90 % 0 mm
09:45 10.3 °C 8.8 °C 1024.9 hPa SSW 24.8 km/h 38.9 km/h 90 % 0 mm
09:50 10.3 °C 8.8 °C 1024.9 hPa SSW 22.7 km/h 33.3 km/h 90 % 0 mm
09:55 10.4 °C 8.8 °C 1024.9 hPa North 17.1 km/h 24.1 km/h 90 % 0 mm
10:00 10.4 °C 8.9 °C 1025.3 hPa South 15 km/h 27.8 km/h 90 % 0 mm
10:05 10.4 °C 9.1 °C 1025.3 hPa SSW 17.9 km/h 25.9 km/h 91 % 0 mm
10:10 10.5 °C 9.1 °C 1025.3 hPa SSW 15.1 km/h 20.4 km/h 91 % 0 mm
10:15 10.6 °C 9.2 °C 1025.3 hPa SSW 12.9 km/h 33.8 km/h 91 % 0 mm
10:20 10.7 °C 9.3 °C 1025.3 hPa SSW 14.6 km/h 20.4 km/h 91 % 0 mm
10:25 10.7 °C 9.3 °C 1025.3 hPa SSW 21.9 km/h 29.6 km/h 91 % 0 mm
10:30 10.7 °C 9.4 °C 1025.6 hPa North 9.7 km/h 14.8 km/h 92 % 0 mm
10:35 10.7 °C 9.5 °C 1025.6 hPa North 16.9 km/h 29.6 km/h 92 % 0 mm
10:40 10.8 °C 9.7 °C 1025.6 hPa North 10.6 km/h 16.7 km/h 93 % 0 mm
10:45 10.9 °C 9.8 °C 1025.6 hPa SSW 15.1 km/h 20.9 km/h 93 % 0 mm
10:50 10.9 °C 9.8 °C 1025.6 hPa SW 13.5 km/h 24.1 km/h 93 % 0 mm
10:55 11 °C 9.9 °C 1025.6 hPa North 16.4 km/h 22.2 km/h 93 % 0 mm
11:00 11.1 °C 10 °C 1025.6 hPa North 11.3 km/h 16.7 km/h 93 % 0 mm
11:05 11.2 °C 10.2 °C 1025.6 hPa North 11.7 km/h 20.9 km/h 94 % 0 mm
11:10 11.3 °C 10.3 °C 1025.6 hPa SSW 20.9 km/h 25.9 km/h 94 % 0 mm
11:15 11.4 °C 10.4 °C 1025.6 hPa SSW 19.2 km/h 25.7 km/h 94 % 0 mm
11:20 11.5 °C 10.6 °C 1025.6 hPa SSW 19 km/h 27.8 km/h 94 % 0 mm
11:25 11.6 °C 10.5 °C 1025.6 hPa South 21.1 km/h 31.5 km/h 93 % 0 mm
11:30 11.7 °C 10.6 °C 1025.6 hPa North 13.7 km/h 22.2 km/h 93 % 0 mm
11:35 11.7 °C 10.6 °C 1025.6 hPa North 20.1 km/h 27.8 km/h 93 % 0 mm
11:40 11.7 °C 10.8 °C 1025.6 hPa South 15.8 km/h 20.4 km/h 94 % 0 mm
11:45 11.7 °C 10.8 °C 1025.3 hPa South 17.7 km/h 24.1 km/h 94 % 0 mm
11:50 11.8 °C 10.8 °C 1025.3 hPa North 18.7 km/h 25.9 km/h 94 % 0 mm
11:55 11.9 °C 10.9 °C 1025.3 hPa South 23.8 km/h 32.2 km/h 94 % 0 mm
12:00 12 °C 11.1 °C 1025.3 hPa South 22.5 km/h 33.3 km/h 94 % 0.25 mm
12:05 12.2 °C 11.3 °C 1024.9 hPa SSW 18.5 km/h 25.9 km/h 94 % 0.25 mm
12:10 12.2 °C 11.1 °C 1024.9 hPa South 15.8 km/h 29.6 km/h 93 % 0.25 mm
12:15 12.1 °C 10.8 °C 1024.9 hPa South 21.6 km/h 48.1 km/h 92 % 0.25 mm
12:20 12.1 °C 10.9 °C 1024.9 hPa SSW 18.2 km/h 35.2 km/h 93 % 0.25 mm
12:25 12.1 °C 11 °C 1024.9 hPa SSW 21.9 km/h 38.9 km/h 93 % 0.25 mm
12:30 12.1 °C 11 °C 1024.9 hPa South 27.5 km/h 40.7 km/h 93 % 0.25 mm
12:35 12.2 °C 11.1 °C 1024.9 hPa SSW 18.8 km/h 29.6 km/h 93 % 0.25 mm
12:40 12.4 °C 11.3 °C 1024.9 hPa South 15 km/h 18.5 km/h 93 % 0.25 mm
12:45 12.6 °C 11.3 °C 1024.9 hPa SSW 17.5 km/h 27.4 km/h 92 % 0.25 mm
12:50 12.4 °C 11.2 °C 1024.9 hPa South 17.1 km/h 22.2 km/h 92 % 0.25 mm
12:55 12.4 °C 11.2 °C 1024.9 hPa SSW 19 km/h 31.5 km/h 92 % 0.25 mm
13:00 12.4 °C 11.1 °C 1024.9 hPa SSW 21.4 km/h 27.8 km/h 92 % 0 mm
13:05 12.3 °C 11 °C 1024.9 hPa North 28.6 km/h 35.2 km/h 92 % 0 mm
13:10 12.3 °C 11.1 °C 1024.9 hPa North 18.2 km/h 27.8 km/h 92 % 0 mm
13:15 12.5 °C 11.2 °C 1024.9 hPa South 28.2 km/h 40.7 km/h 92 % 0 mm
13:20 12.5 °C 11.1 °C 1024.6 hPa SSW 26.1 km/h 35.2 km/h 91 % 0 mm
13:25 12.4 °C 10.9 °C 1024.9 hPa South 18.2 km/h 29.6 km/h 91 % 0 mm
13:30 12.4 °C 11.1 °C 1024.6 hPa North 18.5 km/h 33.3 km/h 92 % 0 mm
13:35 12.5 °C 11.2 °C 1024.9 hPa South 14 km/h 24.1 km/h 92 % 0 mm
13:40 12.5 °C 11.4 °C 1024.6 hPa North 16.3 km/h 24.1 km/h 93 % 0 mm
13:45 12.6 °C 11.3 °C 1024.6 hPa SSW 24.3 km/h 40.7 km/h 92 % 0 mm
13:50 12.8 °C 11.5 °C 1024.6 hPa South 21.6 km/h 31.5 km/h 92 % 0 mm
13:55 12.8 °C 11.3 °C 1024.6 hPa South 18.5 km/h 25.9 km/h 91 % 0 mm
14:00 12.7 °C 11.2 °C 1024.6 hPa SSW 22.4 km/h 37 km/h 91 % 0 mm
14:05 12.6 °C 11.2 °C 1024.6 hPa South 23.3 km/h 38.9 km/h 91 % 0 mm
14:10 12.7 °C 11.2 °C 1024.6 hPa SSW 21.4 km/h 33.3 km/h 91 % 0 mm
14:15 12.8 °C 11.3 °C 1024.6 hPa South 20.8 km/h 25.9 km/h 91 % 0 mm
14:20 12.8 °C 11.4 °C 1024.6 hPa SSW 21.4 km/h 24.1 km/h 91 % 0 mm
14:25 12.6 °C 11.1 °C 1024.6 hPa SSE 25.3 km/h 42.6 km/h 91 % 0 mm
14:30 12.5 °C 11.2 °C 1024.6 hPa SSW 21.1 km/h 31.5 km/h 92 % 0 mm
14:35 12.5 °C 11.2 °C 1024.6 hPa South 20.8 km/h 38.9 km/h 92 % 0 mm
14:40 12.5 °C 11.2 °C 1024.6 hPa SSW 25.1 km/h 31.5 km/h 92 % 0 mm
14:45 12.4 °C 11.1 °C 1024.9 hPa SSW 19.3 km/h 19.3 km/h 92 % 0 mm
14:50 12.3 °C 11.2 °C 1024.9 hPa South 25.1 km/h 29.6 km/h 93 % 0 mm
14:55 12.4 °C 11.3 °C 1024.9 hPa South 22.4 km/h 31.5 km/h 93 % 0 mm
15:00 12.5 °C 11.2 °C 1024.9 hPa SSW 19 km/h 25.9 km/h 92 % 0 mm
15:05 12.7 °C 11.4 °C 1024.9 hPa South 18.7 km/h 25.7 km/h 92 % 0 mm
15:10 12.7 °C 11.3 °C 1024.9 hPa South 23.3 km/h 33.8 km/h 91 % 0 mm
15:15 12.7 °C 11.1 °C 1024.9 hPa South 17.1 km/h 31.5 km/h 90 % 0 mm
15:20 12.7 °C 11.1 °C 1024.9 hPa South 17.4 km/h 20.4 km/h 90 % 0 mm
15:25 12.7 °C 11.1 °C 1025.3 hPa North 14.2 km/h 27.8 km/h 90 % 0 mm
15:30 12.6 °C 10.9 °C 1025.3 hPa North 23.2 km/h 31.5 km/h 90 % 0 mm
15:35 12.4 °C 10.9 °C 1025.3 hPa North 20.3 km/h 25.9 km/h 91 % 0 mm
15:40 12.3 °C 11.1 °C 1025.3 hPa North 18.8 km/h 27.8 km/h 92 % 0 mm
15:45 12.3 °C 11 °C 1025.3 hPa North 19.3 km/h 31.5 km/h 92 % 0 mm
15:50 12.3 °C 11 °C 1025.3 hPa SSW 19.6 km/h 27.8 km/h 92 % 0 mm
15:55 12.3 °C 11 °C 1025.3 hPa South 22.5 km/h 29.6 km/h 92 % 0 mm
16:00 12.3 °C 11.1 °C 1025.3 hPa South 19.3 km/h 29 km/h 92 % 0 mm
16:05 12.2 °C 10.9 °C 1025.3 hPa SSW 24.9 km/h 31.5 km/h 92 % 0 mm
16:10 12.3 °C 11 °C 1025.3 hPa North 12.4 km/h 24.1 km/h 92 % 0 mm
16:15 12.3 °C 11 °C 1025.3 hPa SSW 18.8 km/h 25.9 km/h 92 % 0 mm
16:17 12.3 °C 11 °C 1025.3 hPa North 14.5 km/h 20.9 km/h 92 % 0 mm
16:22 12.3 °C 11 °C 1025.3 hPa SSW 18.7 km/h 27.4 km/h 92 % 0 mm
16:27 12.3 °C 11 °C 1025.6 hPa North 18.7 km/h 29.6 km/h 92 % 0 mm
16:32 12.2 °C 10.9 °C 1025.6 hPa North 17.7 km/h 24.1 km/h 92 % 0 mm
16:37 12.2 °C 10.9 °C 1025.6 hPa South 17.7 km/h 25.9 km/h 92 % 0 mm
16:42 12.1 °C 10.8 °C 1025.6 hPa South 19 km/h 31.5 km/h 92 % 0 mm
16:47 12 °C 10.9 °C 1025.6 hPa SSW 20.8 km/h 29.6 km/h 93 % 0 mm
16:52 12 °C 10.9 °C 1025.6 hPa South 17.9 km/h 24.1 km/h 93 % 0 mm
16:57 12.1 °C 10.9 °C 1025.6 hPa SSE 17.7 km/h 25.9 km/h 93 % 0 mm
17:02 12 °C 10.9 °C 1025.6 hPa SSW 14.3 km/h 20.4 km/h 93 % 0 mm
17:07 11.9 °C 10.8 °C 1025.6 hPa South 17.2 km/h 22.2 km/h 93 % 0 mm
17:12 11.8 °C 10.9 °C 1025.6 hPa SSW 18.2 km/h 27.8 km/h 94 % 0 mm
17:17 11.8 °C 10.8 °C 1025.6 hPa South 18.3 km/h 31.5 km/h 94 % 0 mm
17:22 11.7 °C 10.7 °C 1025.6 hPa South 16.1 km/h 22.2 km/h 94 % 0 mm
17:27 11.7 °C 10.7 °C 1025.6 hPa SSW 16.6 km/h 27.8 km/h 94 % 0 mm
17:32 11.7 °C 10.7 °C 1026 hPa South 15 km/h 27.8 km/h 94 % 0 mm
17:37 11.7 °C 10.7 °C 1026 hPa SSW 20.6 km/h 25.9 km/h 94 % 0 mm
17:42 11.6 °C 10.6 °C 1025.6 hPa North 26.4 km/h 35.2 km/h 94 % 0 mm
17:47 11.4 °C 10.5 °C 1025.6 hPa SSW 22.2 km/h 27.8 km/h 94 % 0 mm
17:52 11.4 °C 10.5 °C 1025.6 hPa South 18.3 km/h 31.5 km/h 94 % 0 mm
17:57 11.4 °C 10.5 °C 1025.6 hPa South 27.4 km/h 37 km/h 94 % 0 mm
18:02 11.4 °C 10.5 °C 1025.6 hPa South 20.8 km/h 27.8 km/h 94 % 0 mm
18:07 11.3 °C 10.6 °C 1025.6 hPa SSW 28 km/h 38.9 km/h 95 % 0 mm
18:12 11.3 °C 10.5 °C 1025.6 hPa North 23 km/h 38.9 km/h 95 % 0 mm
18:17 11.2 °C 10.4 °C 1026 hPa SSW 21.4 km/h 27.8 km/h 95 % 0 mm
18:22 11.2 °C 10.4 °C 1026 hPa South 19.5 km/h 31.5 km/h 95 % 0 mm
18:27 11.2 °C 10.4 °C 1026 hPa SSW 25.7 km/h 30.6 km/h 95 % 0 mm
18:31 11.2 °C 10.4 °C 1026 hPa South 22 km/h 31.5 km/h 95 % 0 mm
18:36 11.3 °C 10.5 °C 1026 hPa SSW 19.3 km/h 31.5 km/h 95 % 0 mm
18:41 11.3 °C 10.5 °C 1026.3 hPa SSW 15.3 km/h 35.2 km/h 95 % 0 mm
18:43 11.3 °C 10.5 °C 1026.3 hPa South 18.2 km/h 24.1 km/h 95 % 0 mm
18:48 11.3 °C 10.5 °C 1026 hPa SW 17.4 km/h 25.7 km/h 95 % 0 mm
18:53 11.2 °C 10.4 °C 1026.3 hPa South 17.2 km/h 33.3 km/h 95 % 0 mm
18:58 11.2 °C 10.4 °C 1026.3 hPa SSW 17.1 km/h 29.6 km/h 95 % 0 mm
19:03 11.2 °C 10.4 °C 1026.3 hPa South 23.5 km/h 31.5 km/h 95 % 0 mm
19:08 11.2 °C 10.4 °C 1026.3 hPa SSW 21.1 km/h 37 km/h 95 % 0 mm
19:13 11.2 °C 10.4 °C 1026.3 hPa SSW 21.4 km/h 37 km/h 95 % 0 mm
19:18 11.1 °C 10.3 °C 1026.3 hPa South 20 km/h 25.9 km/h 95 % 0 mm
19:23 11.1 °C 10.3 °C 1026.3 hPa South 14.2 km/h 18.5 km/h 95 % 0 mm
19:28 11.2 °C 10.4 °C 1026.6 hPa South 18.2 km/h 27.8 km/h 95 % 0 mm
19:33 11.2 °C 10.4 °C 1026.6 hPa North 21.1 km/h 32.2 km/h 95 % 0 mm
19:38 11.1 °C 10.3 °C 1026.6 hPa South 19.5 km/h 31.5 km/h 95 % 0.25 mm
19:43 11 °C 10.2 °C 1026.6 hPa North 19 km/h 35.2 km/h 95 % 0.25 mm
19:48 10.9 °C 10.1 °C 1026.6 hPa South 15.1 km/h 38.9 km/h 95 % 0.25 mm
19:53 10.8 °C 10.1 °C 1026.6 hPa SSW 25.3 km/h 33.3 km/h 95 % 0.25 mm
19:58 10.8 °C 10 °C 1026.6 hPa SSW 25.3 km/h 33.3 km/h 95 % 0.25 mm
20:03 10.7 °C 9.9 °C 1027 hPa South 23.7 km/h 29.6 km/h 95 % 0.25 mm
20:08 10.7 °C 9.9 °C 1027 hPa South 18.8 km/h 27.8 km/h 95 % 0.25 mm
20:13 10.8 °C 10 °C 1027 hPa South 18.8 km/h 24.1 km/h 95 % 0.25 mm
20:18 10.8 °C 10 °C 1027 hPa South 18.2 km/h 22.2 km/h 95 % 0.25 mm
20:23 10.8 °C 10 °C 1027 hPa SSW 17.1 km/h 24.1 km/h 95 % 0.25 mm
20:28 10.8 °C 10 °C 1027 hPa North 16.3 km/h 29.6 km/h 95 % 0.25 mm
20:33 10.8 °C 10 °C 1027 hPa SSW 22.2 km/h 35.2 km/h 95 % 0.25 mm
20:38 10.8 °C 10 °C 1027 hPa SW 17.2 km/h 27.4 km/h 95 % 0 mm
20:43 10.8 °C 10 °C 1027 hPa SSW 21.2 km/h 27.8 km/h 95 % 0 mm
20:48 10.8 °C 10 °C 1027 hPa SSW 21.7 km/h 29.6 km/h 95 % 0 mm
20:53 10.8 °C 10 °C 1027 hPa South 16.3 km/h 24.1 km/h 95 % 0 mm
20:58 10.8 °C 10 °C 1027 hPa South 19 km/h 24.1 km/h 95 % 0 mm
21:03 10.8 °C 10 °C 1027 hPa South 11.3 km/h 33.3 km/h 95 % 0 mm
21:08 10.7 °C 9.9 °C 1027 hPa SSE 19.3 km/h 29.6 km/h 95 % 0 mm
21:13 10.7 °C 9.9 °C 1027 hPa SSW 16.4 km/h 27.8 km/h 95 % 0 mm
21:18 10.7 °C 9.9 °C 1027 hPa SSW 15.9 km/h 27.4 km/h 95 % 0 mm
21:23 10.8 °C 10 °C 1027 hPa South 22.4 km/h 27.8 km/h 95 % 0 mm
21:33 10.8 °C 10 °C 1027.3 hPa South 12.9 km/h 20.4 km/h 95 % 0 mm
21:38 10.8 °C 10 °C 1027.3 hPa SSW 10.8 km/h 18.5 km/h 95 % 0 mm
21:43 10.8 °C 10 °C 1027.3 hPa SSW 25.3 km/h 30.6 km/h 95 % 0 mm
21:48 10.8 °C 10 °C 1027.3 hPa SSW 15 km/h 20.9 km/h 95 % 0 mm
21:53 10.8 °C 10 °C 1027.3 hPa South 15 km/h 33.3 km/h 95 % 0 mm
21:58 10.8 °C 10.1 °C 1027.3 hPa South 16.4 km/h 20.9 km/h 95 % 0 mm
22:03 10.8 °C 10.1 °C 1027.3 hPa South 13.8 km/h 18.5 km/h 95 % 0 mm
22:08 10.8 °C 10.1 °C 1027.3 hPa SSW 10 km/h 22.2 km/h 95 % 0 mm
22:13 10.8 °C 10 °C 1027.7 hPa South 18.3 km/h 25.9 km/h 95 % 0 mm
22:18 10.8 °C 10 °C 1027.7 hPa SSE 18 km/h 38.9 km/h 95 % 0 mm
22:23 10.7 °C 9.9 °C 1027.7 hPa North 19.6 km/h 38.9 km/h 95 % 0 mm
22:28 10.4 °C 9.4 °C 1027.7 hPa South 16.7 km/h 38.9 km/h 94 % 0 mm
22:33 10.2 °C 9.2 °C 1027.7 hPa South 18.5 km/h 37 km/h 94 % 0 mm
22:38 10.1 °C 9.3 °C 1027.7 hPa SSW 18.7 km/h 31.5 km/h 95 % 0 mm
22:43 10.1 °C 9.3 °C 1027.7 hPa South 16.1 km/h 25.9 km/h 95 % 0 mm
22:48 10.2 °C 9.4 °C 1027.7 hPa SSW 17.1 km/h 22.2 km/h 95 % 0 mm
22:53 10.1 °C 9.2 °C 1027.7 hPa North 19.6 km/h 22.2 km/h 94 % 0 mm
22:58 10 °C 9.1 °C 1027.7 hPa SSW 20.6 km/h 29 km/h 94 % 0 mm
23:03 9.9 °C 8.8 °C 1027.7 hPa SSW 17.2 km/h 24.1 km/h 93 % 0 mm
23:08 9.9 °C 8.7 °C 1027.7 hPa SSW 17.1 km/h 29.6 km/h 92 % 0 mm
23:13 10.1 °C 8.7 °C 1027.7 hPa South 14.8 km/h 29 km/h 91 % 0 mm
23:18 10.1 °C 8.7 °C 1027.7 hPa SSW 13 km/h 16.7 km/h 91 % 0 mm
23:23 10.2 °C 8.8 °C 1027.7 hPa South 14.2 km/h 22.2 km/h 91 % 0 mm
23:28 10.2 °C 8.8 °C 1027.7 hPa South 7.9 km/h 13 km/h 91 % 0 mm
23:33 10.1 °C 8.7 °C 1027.7 hPa South 14.8 km/h 20.4 km/h 91 % 0 mm
23:38 10.1 °C 8.6 °C 1027.7 hPa SW 15.4 km/h 24.1 km/h 90 % 0 mm
23:43 10.1 °C 8.4 °C 1028 hPa South 15 km/h 24.1 km/h 89 % 0 mm
23:48 10.2 °C 8.4 °C 1027.7 hPa South 13 km/h 18.5 km/h 89 % 0 mm
23:53 10.1 °C 8.4 °C 1027.7 hPa South 18.7 km/h 25.9 km/h 89 % 0 mm
23:58 10.1 °C 8.4 °C 1027.7 hPa South 15.8 km/h 22.2 km/h 89 % 0 mm
Ararat Weather
Compliments of Weather Underground - 2.5 mb
Click here to send mail.


ABOUT

Live weather data from Ararat, Victoria, Australia, 3377
Data uploaded from Cumulus every 5 minutes to Weather Underground.
This site then downloads the raw data for formatting and display.
Metric and imperial data can be displayed. Graphs and historical data available.
Includes Sun and Moon times and rain image live from BOM.

Check out Ararat Weather on Facebook, Twitter and Google +

Help support ongoing costs by checking out the ads





Follow @AraratWeather